sensor_id;sensor_type;location;lat;lon;timestamp;P1;P2;P0
57884;PMS5003;43703;51.060;-0.086;2022-08-25T00:01:10;5;5;
57884;PMS5003;43703;51.060;-0.086;2022-08-25T00:03:35;3;3;
57884;PMS5003;43703;51.060;-0.086;2022-08-25T00:06:02;3;3;
57884;PMS5003;43703;51.060;-0.086;2022-08-25T00:08:27;5;5;
57884;PMS5003;43703;51.060;-0.086;2022-08-25T00:10:53;4;4;
57884;PMS5003;43703;51.060;-0.086;2022-08-25T00:13:19;5;5;
57884;PMS5003;43703;51.060;-0.086;2022-08-25T00:15:45;5;5;
57884;PMS5003;43703;51.060;-0.086;2022-08-25T00:18:10;5;5;
57884;PMS5003;43703;51.060;-0.086;2022-08-25T00:20:36;5;5;
57884;PMS5003;43703;51.060;-0.086;2022-08-25T00:23:02;4;4;
57884;PMS5003;43703;51.060;-0.086;2022-08-25T00:25:28;7;5;
57884;PMS5003;43703;51.060;-0.086;2022-08-25T00:27:54;7;7;
57884;PMS5003;43703;51.060;-0.086;2022-08-25T00:30:20;6;6;
57884;PMS5003;43703;51.060;-0.086;2022-08-25T00:32:46;6;6;
57884;PMS5003;43703;51.060;-0.086;2022-08-25T00:35:11;6;6;
57884;PMS5003;43703;51.060;-0.086;2022-08-25T00:37:37;6;6;
57884;PMS5003;43703;51.060;-0.086;2022-08-25T00:40:03;7;7;
57884;PMS5003;43703;51.060;-0.086;2022-08-25T00:42:29;6;6;
57884;PMS5003;43703;51.060;-0.086;2022-08-25T00:44:55;11;11;
57884;PMS5003;43703;51.060;-0.086;2022-08-25T00:47:20;12;11;
57884;PMS5003;43703;51.060;-0.086;2022-08-25T00:49:48;13;10;
57884;PMS5003;43703;51.060;-0.086;2022-08-25T00:52:12;16;16;
57884;PMS5003;43703;51.060;-0.086;2022-08-25T00:54:39;13;12;
57884;PMS5003;43703;51.060;-0.086;2022-08-25T00:57:04;17;16;
57884;PMS5003;43703;51.060;-0.086;2022-08-25T00:59:29;13;12;
57884;PMS5003;43703;51.060;-0.086;2022-08-25T01:01:55;13;12;
57884;PMS5003;43703;51.060;-0.086;2022-08-25T01:04:21;13;13;
57884;PMS5003;43703;51.060;-0.086;2022-08-25T01:06:47;11;11;
57884;PMS5003;43703;51.060;-0.086;2022-08-25T01:09:13;10;10;
57884;PMS5003;43703;51.060;-0.086;2022-08-25T01:11:39;11;11;
57884;PMS5003;43703;51.060;-0.086;2022-08-25T01:14:04;13;13;
57884;PMS5003;43703;51.060;-0.086;2022-08-25T01:16:30;9;9;
57884;PMS5003;43703;51.060;-0.086;2022-08-25T01:18:56;13;12;
57884;PMS5003;43703;51.060;-0.086;2022-08-25T01:21:24;8;8;
57884;PMS5003;43703;51.060;-0.086;2022-08-25T01:23:48;12;12;
57884;PMS5003;43703;51.060;-0.086;2022-08-25T01:26:15;12;11;
57884;PMS5003;43703;51.060;-0.086;2022-08-25T01:28:40;11;11;
57884;PMS5003;43703;51.060;-0.086;2022-08-25T01:31:05;13;10;
57884;PMS5003;43703;51.060;-0.086;2022-08-25T01:33:31;9;9;
57884;PMS5003;43703;51.060;-0.086;2022-08-25T01:35:57;9;9;
57884;PMS5003;43703;51.060;-0.086;2022-08-25T01:38:23;7;7;
57884;PMS5003;43703;51.060;-0.086;2022-08-25T01:40:48;8;8;
57884;PMS5003;43703;51.060;-0.086;2022-08-25T01:43:16;7;7;
57884;PMS5003;43703;51.060;-0.086;2022-08-25T01:45:41;5;5;
57884;PMS5003;43703;51.060;-0.086;2022-08-25T01:48:06;4;4;
57884;PMS5003;43703;51.060;-0.086;2022-08-25T01:50:31;5;5;
57884;PMS5003;43703;51.060;-0.086;2022-08-25T01:52:58;6;6;
57884;PMS5003;43703;51.060;-0.086;2022-08-25T01:55:23;9;9;
57884;PMS5003;43703;51.060;-0.086;2022-08-25T01:57:49;5;5;
57884;PMS5003;43703;51.060;-0.086;2022-08-25T02:00:15;7;6;
57884;PMS5003;43703;51.060;-0.086;2022-08-25T02:02:40;4;4;
57884;PMS5003;43703;51.060;-0.086;2022-08-25T02:05:07;6;6;
57884;PMS5003;43703;51.060;-0.086;2022-08-25T02:07:32;7;7;
57884;PMS5003;43703;51.060;-0.086;2022-08-25T02:09:58;7;7;
57884;PMS5003;43703;51.060;-0.086;2022-08-25T02:12:24;9;9;
57884;PMS5003;43703;51.060;-0.086;2022-08-25T02:14:50;9;9;
57884;PMS5003;43703;51.060;-0.086;2022-08-25T02:17:15;8;8;
57884;PMS5003;43703;51.060;-0.086;2022-08-25T02:19:41;9;9;
57884;PMS5003;43703;51.060;-0.086;2022-08-25T02:22:07;9;8;
57884;PMS5003;43703;51.060;-0.086;2022-08-25T02:24:33;7;7;
57884;PMS5003;43703;51.060;-0.086;2022-08-25T02:26:59;6;6;
57884;PMS5003;43703;51.060;-0.086;2022-08-25T02:29:25;8;6;
57884;PMS5003;43703;51.060;-0.086;2022-08-25T02:31:51;6;6;
57884;PMS5003;43703;51.060;-0.086;2022-08-25T02:34:16;6;6;
57884;PMS5003;43703;51.060;-0.086;2022-08-25T02:36:42;5;5;
57884;PMS5003;43703;51.060;-0.086;2022-08-25T02:39:08;7;7;
57884;PMS5003;43703;51.060;-0.086;2022-08-25T02:41:34;5;5;
57884;PMS5003;43703;51.060;-0.086;2022-08-25T02:44:00;9;6;
57884;PMS5003;43703;51.060;-0.086;2022-08-25T02:46:26;7;6;
57884;PMS5003;43703;51.060;-0.086;2022-08-25T02:48:52;7;7;
57884;PMS5003;43703;51.060;-0.086;2022-08-25T02:51:17;8;8;
57884;PMS5003;43703;51.060;-0.086;2022-08-25T02:53:43;7;7;
57884;PMS5003;43703;51.060;-0.086;2022-08-25T02:56:10;7;7;
57884;PMS5003;43703;51.060;-0.086;2022-08-25T02:58:35;6;6;
57884;PMS5003;43703;51.060;-0.086;2022-08-25T03:01:01;6;6;
57884;PMS5003;43703;51.060;-0.086;2022-08-25T03:03:26;8;8;
57884;PMS5003;43703;51.060;-0.086;2022-08-25T03:05:52;8;8;
57884;PMS5003;43703;51.060;-0.086;2022-08-25T03:08:18;7;7;
57884;PMS5003;43703;51.060;-0.086;2022-08-25T03:10:44;8;8;
57884;PMS5003;43703;51.060;-0.086;2022-08-25T03:13:10;7;7;
57884;PMS5003;43703;51.060;-0.086;2022-08-25T03:15:35;7;7;
57884;PMS5003;43703;51.060;-0.086;2022-08-25T03:18:01;5;5;
57884;PMS5003;43703;51.060;-0.086;2022-08-25T03:20:27;7;7;
57884;PMS5003;43703;51.060;-0.086;2022-08-25T03:22:53;7;6;
57884;PMS5003;43703;51.060;-0.086;2022-08-25T03:25:19;8;8;
57884;PMS5003;43703;51.060;-0.086;2022-08-25T03:27:45;9;7;
57884;PMS5003;43703;51.060;-0.086;2022-08-25T03:30:11;7;7;
57884;PMS5003;43703;51.060;-0.086;2022-08-25T03:32:37;8;8;
57884;PMS5003;43703;51.060;-0.086;2022-08-25T03:35:02;8;8;
57884;PMS5003;43703;51.060;-0.086;2022-08-25T03:37:29;9;9;
57884;PMS5003;43703;51.060;-0.086;2022-08-25T03:39:54;8;8;
57884;PMS5003;43703;51.060;-0.086;2022-08-25T03:42:20;7;7;
57884;PMS5003;43703;51.060;-0.086;2022-08-25T03:44:46;6;6;
57884;PMS5003;43703;51.060;-0.086;2022-08-25T03:47:12;7;7;
57884;PMS5003;43703;51.060;-0.086;2022-08-25T03:49:37;8;8;
57884;PMS5003;43703;51.060;-0.086;2022-08-25T03:52:03;9;9;
57884;PMS5003;43703;51.060;-0.086;2022-08-25T03:54:29;8;7;
57884;PMS5003;43703;51.060;-0.086;2022-08-25T03:56:55;7;7;
57884;PMS5003;43703;51.060;-0.086;2022-08-25T03:59:21;6;6;
57884;PMS5003;43703;51.060;-0.086;2022-08-25T04:01:47;7;7;
57884;PMS5003;43703;51.060;-0.086;2022-08-25T04:04:13;8;8;
57884;PMS5003;43703;51.060;-0.086;2022-08-25T04:06:38;8;8;
57884;PMS5003;43703;51.060;-0.086;2022-08-25T04:09:05;7;7;
57884;PMS5003;43703;51.060;-0.086;2022-08-25T04:11:30;10;10;
57884;PMS5003;43703;51.060;-0.086;2022-08-25T04:13:56;7;7;
57884;PMS5003;43703;51.060;-0.086;2022-08-25T04:16:22;9;7;
57884;PMS5003;43703;51.060;-0.086;2022-08-25T04:18:48;11;11;
57884;PMS5003;43703;51.060;-0.086;2022-08-25T04:21:13;9;9;
57884;PMS5003;43703;51.060;-0.086;2022-08-25T04:23:40;8;8;
57884;PMS5003;43703;51.060;-0.086;2022-08-25T04:26:07;10;10;
57884;PMS5003;43703;51.060;-0.086;2022-08-25T04:28:31;10;9;
57884;PMS5003;43703;51.060;-0.086;2022-08-25T04:30:56;12;11;
57884;PMS5003;43703;51.060;-0.086;2022-08-25T04:33:22;14;11;
57884;PMS5003;43703;51.060;-0.086;2022-08-25T04:35:48;10;9;
57884;PMS5003;43703;51.060;-0.086;2022-08-25T04:38:13;8;6;
57884;PMS5003;43703;51.060;-0.086;2022-08-25T04:40:39;5;5;
57884;PMS5003;43703;51.060;-0.086;2022-08-25T04:43:05;6;6;
57884;PMS5003;43703;51.060;-0.086;2022-08-25T04:45:35;8;6;
57884;PMS5003;43703;51.060;-0.086;2022-08-25T04:47:56;6;6;
57884;PMS5003;43703;51.060;-0.086;2022-08-25T04:50:22;6;6;
57884;PMS5003;43703;51.060;-0.086;2022-08-25T04:52:48;8;7;
57884;PMS5003;43703;51.060;-0.086;2022-08-25T04:55:14;9;9;
57884;PMS5003;43703;51.060;-0.086;2022-08-25T04:57:40;9;8;
57884;PMS5003;43703;51.060;-0.086;2022-08-25T05:00:06;8;8;
57884;PMS5003;43703;51.060;-0.086;2022-08-25T05:02:31;8;8;
57884;PMS5003;43703;51.060;-0.086;2022-08-25T05:04:57;6;6;
57884;PMS5003;43703;51.060;-0.086;2022-08-25T05:07:23;7;7;
57884;PMS5003;43703;51.060;-0.086;2022-08-25T05:09:48;6;6;
57884;PMS5003;43703;51.060;-0.086;2022-08-25T05:12:14;6;6;
57884;PMS5003;43703;51.060;-0.086;2022-08-25T05:14:40;9;9;
57884;PMS5003;43703;51.060;-0.086;2022-08-25T05:17:06;7;7;
57884;PMS5003;43703;51.060;-0.086;2022-08-25T05:19:32;7;5;
57884;PMS5003;43703;51.060;-0.086;2022-08-25T05:21:58;7;6;
57884;PMS5003;43703;51.060;-0.086;2022-08-25T05:24:24;7;7;
57884;PMS5003;43703;51.060;-0.086;2022-08-25T05:26:49;6;4;
57884;PMS5003;43703;51.060;-0.086;2022-08-25T05:29:15;7;7;
57884;PMS5003;43703;51.060;-0.086;2022-08-25T05:31:41;7;7;
57884;PMS5003;43703;51.060;-0.086;2022-08-25T05:34:07;7;7;
57884;PMS5003;43703;51.060;-0.086;2022-08-25T05:36:33;9;9;
57884;PMS5003;43703;51.060;-0.086;2022-08-25T05:38:59;8;8;
57884;PMS5003;43703;51.060;-0.086;2022-08-25T05:41:25;11;10;
57884;PMS5003;43703;51.060;-0.086;2022-08-25T05:43:50;5;5;
57884;PMS5003;43703;51.060;-0.086;2022-08-25T05:46:17;6;6;
57884;PMS5003;43703;51.060;-0.086;2022-08-25T05:48:42;7;7;
57884;PMS5003;43703;51.060;-0.086;2022-08-25T05:51:08;8;8;
57884;PMS5003;43703;51.060;-0.086;2022-08-25T05:53:34;6;5;
57884;PMS5003;43703;51.060;-0.086;2022-08-25T05:55:59;7;7;
57884;PMS5003;43703;51.060;-0.086;2022-08-25T05:58:25;5;5;
57884;PMS5003;43703;51.060;-0.086;2022-08-25T06:00:51;3;3;
57884;PMS5003;43703;51.060;-0.086;2022-08-25T06:03:17;5;5;
57884;PMS5003;43703;51.060;-0.086;2022-08-25T06:05:42;3;3;
57884;PMS5003;43703;51.060;-0.086;2022-08-25T06:08:08;4;4;
57884;PMS5003;43703;51.060;-0.086;2022-08-25T06:10:34;6;6;
57884;PMS5003;43703;51.060;-0.086;2022-08-25T06:13:00;7;5;
57884;PMS5003;43703;51.060;-0.086;2022-08-25T06:15:26;5;5;
57884;PMS5003;43703;51.060;-0.086;2022-08-25T06:17:52;6;6;
57884;PMS5003;43703;51.060;-0.086;2022-08-25T06:20:19;6;6;
57884;PMS5003;43703;51.060;-0.086;2022-08-25T06:22:44;6;6;
57884;PMS5003;43703;51.060;-0.086;2022-08-25T06:25:10;7;5;
57884;PMS5003;43703;51.060;-0.086;2022-08-25T06:27:35;5;5;
57884;PMS5003;43703;51.060;-0.086;2022-08-25T06:30:01;6;5;
57884;PMS5003;43703;51.060;-0.086;2022-08-25T06:32:27;6;6;
57884;PMS5003;43703;51.060;-0.086;2022-08-25T06:34:53;6;6;
57884;PMS5003;43703;51.060;-0.086;2022-08-25T06:37:18;6;6;
57884;PMS5003;43703;51.060;-0.086;2022-08-25T06:39:44;7;7;
57884;PMS5003;43703;51.060;-0.086;2022-08-25T06:42:10;6;6;
57884;PMS5003;43703;51.060;-0.086;2022-08-25T06:44:36;6;6;
57884;PMS5003;43703;51.060;-0.086;2022-08-25T06:47:02;7;7;
57884;PMS5003;43703;51.060;-0.086;2022-08-25T06:49:27;9;6;
57884;PMS5003;43703;51.060;-0.086;2022-08-25T06:51:53;7;7;
57884;PMS5003;43703;51.060;-0.086;2022-08-25T06:54:19;6;5;
57884;PMS5003;43703;51.060;-0.086;2022-08-25T06:56:45;8;7;
57884;PMS5003;43703;51.060;-0.086;2022-08-25T06:59:10;6;5;
57884;PMS5003;43703;51.060;-0.086;2022-08-25T07:01:36;5;5;
57884;PMS5003;43703;51.060;-0.086;2022-08-25T07:04:02;6;6;
57884;PMS5003;43703;51.060;-0.086;2022-08-25T07:06:28;5;5;
57884;PMS5003;43703;51.060;-0.086;2022-08-25T07:08:53;7;7;
57884;PMS5003;43703;51.060;-0.086;2022-08-25T07:13:45;6;6;
57884;PMS5003;43703;51.060;-0.086;2022-08-25T07:16:11;6;6;
57884;PMS5003;43703;51.060;-0.086;2022-08-25T07:18:37;5;5;
57884;PMS5003;43703;51.060;-0.086;2022-08-25T07:21:02;7;5;
57884;PMS5003;43703;51.060;-0.086;2022-08-25T07:23:28;4;3;
57884;PMS5003;43703;51.060;-0.086;2022-08-25T07:25:54;6;6;
57884;PMS5003;43703;51.060;-0.086;2022-08-25T07:28:20;5;5;
57884;PMS5003;43703;51.060;-0.086;2022-08-25T07:30:46;4;4;
57884;PMS5003;43703;51.060;-0.086;2022-08-25T07:33:11;6;6;
57884;PMS5003;43703;51.060;-0.086;2022-08-25T07:35:37;3;3;
57884;PMS5003;43703;51.060;-0.086;2022-08-25T07:38:04;6;4;
57884;PMS5003;43703;51.060;-0.086;2022-08-25T07:40:30;4;4;
57884;PMS5003;43703;51.060;-0.086;2022-08-25T07:42:55;5;5;
57884;PMS5003;43703;51.060;-0.086;2022-08-25T07:45:22;5;5;
57884;PMS5003;43703;51.060;-0.086;2022-08-25T07:47:47;6;6;
57884;PMS5003;43703;51.060;-0.086;2022-08-25T07:50:12;5;5;
57884;PMS5003;43703;51.060;-0.086;2022-08-25T07:52:38;4;4;
57884;PMS5003;43703;51.060;-0.086;2022-08-25T07:55:05;6;6;
57884;PMS5003;43703;51.060;-0.086;2022-08-25T07:57:30;3;3;
57884;PMS5003;43703;51.060;-0.086;2022-08-25T07:59:56;3;3;
57884;PMS5003;43703;51.060;-0.086;2022-08-25T08:02:22;4;4;
57884;PMS5003;43703;51.060;-0.086;2022-08-25T08:04:48;4;4;
57884;PMS5003;43703;51.060;-0.086;2022-08-25T08:07:15;4;4;
57884;PMS5003;43703;51.060;-0.086;2022-08-25T08:09:39;4;4;
57884;PMS5003;43703;51.060;-0.086;2022-08-25T08:12:05;6;6;
57884;PMS5003;43703;51.060;-0.086;2022-08-25T08:14:31;6;5;
57884;PMS5003;43703;51.060;-0.086;2022-08-25T08:16:57;4;3;
57884;PMS5003;43703;51.060;-0.086;2022-08-25T08:19:22;4;4;
57884;PMS5003;43703;51.060;-0.086;2022-08-25T08:21:49;3;3;
57884;PMS5003;43703;51.060;-0.086;2022-08-25T08:24:14;3;3;
57884;PMS5003;43703;51.060;-0.086;2022-08-25T08:26:40;3;3;
57884;PMS5003;43703;51.060;-0.086;2022-08-25T08:29:06;3;3;
57884;PMS5003;43703;51.060;-0.086;2022-08-25T08:31:32;2;2;
57884;PMS5003;43703;51.060;-0.086;2022-08-25T08:33:58;3;3;
57884;PMS5003;43703;51.060;-0.086;2022-08-25T08:36:24;2;2;
57884;PMS5003;43703;51.060;-0.086;2022-08-25T08:38:49;2;2;
57884;PMS5003;43703;51.060;-0.086;2022-08-25T08:41:20;5;5;
57884;PMS5003;43703;51.060;-0.086;2022-08-25T08:43:41;7;5;
57884;PMS5003;43703;51.060;-0.086;2022-08-25T08:46:07;5;5;
57884;PMS5003;43703;51.060;-0.086;2022-08-25T08:51:00;4;4;
57884;PMS5003;43703;51.060;-0.086;2022-08-25T08:53:26;6;4;
57884;PMS5003;43703;51.060;-0.086;2022-08-25T08:55:50;8;6;
57884;PMS5003;43703;51.060;-0.086;2022-08-25T08:58:17;11;11;
57884;PMS5003;43703;51.060;-0.086;2022-08-25T09:00:43;8;8;
57884;PMS5003;43703;51.060;-0.086;2022-08-25T09:03:09;7;7;
57884;PMS5003;43703;51.060;-0.086;2022-08-25T09:05:35;5;5;
57884;PMS5003;43703;51.060;-0.086;2022-08-25T09:08:02;4;4;
57884;PMS5003;43703;51.060;-0.086;2022-08-25T09:10:39;5;5;
57884;PMS5003;43703;51.060;-0.086;2022-08-25T09:12:53;3;3;
57884;PMS5003;43703;51.060;-0.086;2022-08-25T09:15:19;7;6;
57884;PMS5003;43703;51.060;-0.086;2022-08-25T09:17:48;4;4;
57884;PMS5003;43703;51.060;-0.086;2022-08-25T09:20:27;5;5;
57884;PMS5003;43703;51.060;-0.086;2022-08-25T09:22:39;6;4;
57884;PMS5003;43703;51.060;-0.086;2022-08-25T09:25:02;8;7;
57884;PMS5003;43703;51.060;-0.086;2022-08-25T09:27:28;7;7;
57884;PMS5003;43703;51.060;-0.086;2022-08-25T09:29:56;6;6;
57884;PMS5003;43703;51.060;-0.086;2022-08-25T09:32:17;6;6;
57884;PMS5003;43703;51.060;-0.086;2022-08-25T09:34:44;6;6;
57884;PMS5003;43703;51.060;-0.086;2022-08-25T09:37:09;7;7;
57884;PMS5003;43703;51.060;-0.086;2022-08-25T09:39:35;7;7;
57884;PMS5003;43703;51.060;-0.086;2022-08-25T09:42:01;7;6;
57884;PMS5003;43703;51.060;-0.086;2022-08-25T09:44:29;8;8;
57884;PMS5003;43703;51.060;-0.086;2022-08-25T09:46:53;6;6;
57884;PMS5003;43703;51.060;-0.086;2022-08-25T09:49:18;6;6;
57884;PMS5003;43703;51.060;-0.086;2022-08-25T09:51:44;10;8;
57884;PMS5003;43703;51.060;-0.086;2022-08-25T09:54:15;7;7;
57884;PMS5003;43703;51.060;-0.086;2022-08-25T09:56:35;6;6;
57884;PMS5003;43703;51.060;-0.086;2022-08-25T10:01:27;8;7;
57884;PMS5003;43703;51.060;-0.086;2022-08-25T10:03:54;6;6;
57884;PMS5003;43703;51.060;-0.086;2022-08-25T10:06:19;7;7;
57884;PMS5003;43703;51.060;-0.086;2022-08-25T10:11:11;7;7;
57884;PMS5003;43703;51.060;-0.086;2022-08-25T10:13:38;5;5;
57884;PMS5003;43703;51.060;-0.086;2022-08-25T10:16:03;5;3;
57884;PMS5003;43703;51.060;-0.086;2022-08-25T10:18:28;6;6;
57884;PMS5003;43703;51.060;-0.086;2022-08-25T10:23:20;6;6;
57884;PMS5003;43703;51.060;-0.086;2022-08-25T10:25:46;7;6;
57884;PMS5003;43703;51.060;-0.086;2022-08-25T10:28:12;6;6;
57884;PMS5003;43703;51.060;-0.086;2022-08-25T10:30:41;6;6;
57884;PMS5003;43703;51.060;-0.086;2022-08-25T10:33:09;6;6;
57884;PMS5003;43703;51.060;-0.086;2022-08-25T10:35:31;7;7;
57884;PMS5003;43703;51.060;-0.086;2022-08-25T10:37:59;6;6;
57884;PMS5003;43703;51.060;-0.086;2022-08-25T10:40:22;6;6;
57884;PMS5003;43703;51.060;-0.086;2022-08-25T10:42:50;4;4;
57884;PMS5003;43703;51.060;-0.086;2022-08-25T10:45:15;7;7;
57884;PMS5003;43703;51.060;-0.086;2022-08-25T10:47:44;7;6;
57884;PMS5003;43703;51.060;-0.086;2022-08-25T10:50:07;7;7;
57884;PMS5003;43703;51.060;-0.086;2022-08-25T10:52:31;7;7;
57884;PMS5003;43703;51.060;-0.086;2022-08-25T10:54:56;7;7;
57884;PMS5003;43703;51.060;-0.086;2022-08-25T10:57:25;7;7;
57884;PMS5003;43703;51.060;-0.086;2022-08-25T10:59:53;9;7;
57884;PMS5003;43703;51.060;-0.086;2022-08-25T11:04:40;5;5;
57884;PMS5003;43703;51.060;-0.086;2022-08-25T11:07:06;4;4;
57884;PMS5003;43703;51.060;-0.086;2022-08-25T11:09:32;2;2;
57884;PMS5003;43703;51.060;-0.086;2022-08-25T11:11:57;1;1;
57884;PMS5003;43703;51.060;-0.086;2022-08-25T11:14:23;2;2;
57884;PMS5003;43703;51.060;-0.086;2022-08-25T11:16:50;2;2;
57884;PMS5003;43703;51.060;-0.086;2022-08-25T11:19:16;1;1;
57884;PMS5003;43703;51.060;-0.086;2022-08-25T11:21:43;4;3;
57884;PMS5003;43703;51.060;-0.086;2022-08-25T11:24:06;2;2;
57884;PMS5003;43703;51.060;-0.086;2022-08-25T11:26:31;3;3;
57884;PMS5003;43703;51.060;-0.086;2022-08-25T11:28:59;2;2;
57884;PMS5003;43703;51.060;-0.086;2022-08-25T11:31:23;2;2;
57884;PMS5003;43703;51.060;-0.086;2022-08-25T11:33:49;4;4;
57884;PMS5003;43703;51.060;-0.086;2022-08-25T11:36:25;4;4;
57884;PMS5003;43703;51.060;-0.086;2022-08-25T11:38:42;4;4;
57884;PMS5003;43703;51.060;-0.086;2022-08-25T11:41:09;2;2;
57884;PMS5003;43703;51.060;-0.086;2022-08-25T11:43:38;2;2;
57884;PMS5003;43703;51.060;-0.086;2022-08-25T11:48:27;3;3;
57884;PMS5003;43703;51.060;-0.086;2022-08-25T11:50:54;7;5;
57884;PMS5003;43703;51.060;-0.086;2022-08-25T11:53:18;5;4;
57884;PMS5003;43703;51.060;-0.086;2022-08-25T12:00:35;3;3;
57884;PMS5003;43703;51.060;-0.086;2022-08-25T12:02:59;3;3;
57884;PMS5003;43703;51.060;-0.086;2022-08-25T12:10:18;2;2;
57884;PMS5003;43703;51.060;-0.086;2022-08-25T12:15:13;3;3;
57884;PMS5003;43703;51.060;-0.086;2022-08-25T12:17:36;4;4;
57884;PMS5003;43703;51.060;-0.086;2022-08-25T12:19:59;4;4;
57884;PMS5003;43703;51.060;-0.086;2022-08-25T12:24:52;5;5;
57884;PMS5003;43703;51.060;-0.086;2022-08-25T12:27:20;5;5;
57884;PMS5003;43703;51.060;-0.086;2022-08-25T12:29:44;7;6;
57884;PMS5003;43703;51.060;-0.086;2022-08-25T12:34:38;4;4;
57884;PMS5003;43703;51.060;-0.086;2022-08-25T12:37:01;6;6;
57884;PMS5003;43703;51.060;-0.086;2022-08-25T12:39:30;6;6;
57884;PMS5003;43703;51.060;-0.086;2022-08-25T12:41:53;9;9;
57884;PMS5003;43703;51.060;-0.086;2022-08-25T12:44:33;6;6;
57884;PMS5003;43703;51.060;-0.086;2022-08-25T12:46:44;6;6;
57884;PMS5003;43703;51.060;-0.086;2022-08-25T12:49:11;7;7;
57884;PMS5003;43703;51.060;-0.086;2022-08-25T12:56:29;8;8;
57884;PMS5003;43703;51.060;-0.086;2022-08-25T12:58:55;9;9;
57884;PMS5003;43703;51.060;-0.086;2022-08-25T13:01:21;9;7;
57884;PMS5003;43703;51.060;-0.086;2022-08-25T13:03:50;5;5;
57884;PMS5003;43703;51.060;-0.086;2022-08-25T13:06:16;6;6;
57884;PMS5003;43703;51.060;-0.086;2022-08-25T13:08:43;4;4;
57884;PMS5003;43703;51.060;-0.086;2022-08-25T13:11:03;5;5;
57884;PMS5003;43703;51.060;-0.086;2022-08-25T13:13:33;6;6;
57884;PMS5003;43703;51.060;-0.086;2022-08-25T13:15:57;7;7;
57884;PMS5003;43703;51.060;-0.086;2022-08-25T13:18:21;4;4;
57884;PMS5003;43703;51.060;-0.086;2022-08-25T13:20:46;5;5;
57884;PMS5003;43703;51.060;-0.086;2022-08-25T13:23:11;4;4;
57884;PMS5003;43703;51.060;-0.086;2022-08-25T13:25:37;4;4;
57884;PMS5003;43703;51.060;-0.086;2022-08-25T13:28:03;4;4;
57884;PMS5003;43703;51.060;-0.086;2022-08-25T13:30:30;3;3;
57884;PMS5003;43703;51.060;-0.086;2022-08-25T13:32:54;4;4;
57884;PMS5003;43703;51.060;-0.086;2022-08-25T13:35:22;3;3;
57884;PMS5003;43703;51.060;-0.086;2022-08-25T13:37:46;6;6;
57884;PMS5003;43703;51.060;-0.086;2022-08-25T13:40:13;4;4;
57884;PMS5003;43703;51.060;-0.086;2022-08-25T13:42:38;3;3;
57884;PMS5003;43703;51.060;-0.086;2022-08-25T13:45:04;5;5;
57884;PMS5003;43703;51.060;-0.086;2022-08-25T13:47:31;4;4;
57884;PMS5003;43703;51.060;-0.086;2022-08-25T13:50:06;4;4;
57884;PMS5003;43703;51.060;-0.086;2022-08-25T13:52:23;4;4;
57884;PMS5003;43703;51.060;-0.086;2022-08-25T13:54:47;3;3;
57884;PMS5003;43703;51.060;-0.086;2022-08-25T13:57:13;4;4;
57884;PMS5003;43703;51.060;-0.086;2022-08-25T13:59:40;3;3;
57884;PMS5003;43703;51.060;-0.086;2022-08-25T14:02:05;4;4;
57884;PMS5003;43703;51.060;-0.086;2022-08-25T14:04:31;4;4;
57884;PMS5003;43703;51.060;-0.086;2022-08-25T14:09:22;3;3;
57884;PMS5003;43703;51.060;-0.086;2022-08-25T14:11:54;3;3;
57884;PMS5003;43703;51.060;-0.086;2022-08-25T14:16:46;3;3;
57884;PMS5003;43703;51.060;-0.086;2022-08-25T14:19:07;3;3;
57884;PMS5003;43703;51.060;-0.086;2022-08-25T14:21:31;3;3;
57884;PMS5003;43703;51.060;-0.086;2022-08-25T14:23:57;4;4;
57884;PMS5003;43703;51.060;-0.086;2022-08-25T14:26:23;4;4;
57884;PMS5003;43703;51.060;-0.086;2022-08-25T14:28:49;3;3;
57884;PMS5003;43703;51.060;-0.086;2022-08-25T14:31:15;4;4;
57884;PMS5003;43703;51.060;-0.086;2022-08-25T14:33:41;2;2;
57884;PMS5003;43703;51.060;-0.086;2022-08-25T14:36:06;5;3;
57884;PMS5003;43703;51.060;-0.086;2022-08-25T14:38:32;4;4;
57884;PMS5003;43703;51.060;-0.086;2022-08-25T14:40:57;4;2;
57884;PMS5003;43703;51.060;-0.086;2022-08-25T14:43:23;2;2;
57884;PMS5003;43703;51.060;-0.086;2022-08-25T14:45:50;4;4;
57884;PMS5003;43703;51.060;-0.086;2022-08-25T14:48:19;2;2;
57884;PMS5003;43703;51.060;-0.086;2022-08-25T14:50:42;3;3;
57884;PMS5003;43703;51.060;-0.086;2022-08-25T14:53:07;4;4;
57884;PMS5003;43703;51.060;-0.086;2022-08-25T14:55:32;4;3;
57884;PMS5003;43703;51.060;-0.086;2022-08-25T14:57:58;2;2;
57884;PMS5003;43703;51.060;-0.086;2022-08-25T15:00:24;4;4;
57884;PMS5003;43703;51.060;-0.086;2022-08-25T15:02:51;4;4;
57884;PMS5003;43703;51.060;-0.086;2022-08-25T15:05:18;3;3;
57884;PMS5003;43703;51.060;-0.086;2022-08-25T15:07:42;5;4;
57884;PMS5003;43703;51.060;-0.086;2022-08-25T15:10:08;3;3;
57884;PMS5003;43703;51.060;-0.086;2022-08-25T15:12:34;3;3;
57884;PMS5003;43703;51.060;-0.086;2022-08-25T15:14:59;2;2;
57884;PMS5003;43703;51.060;-0.086;2022-08-25T15:17:25;2;2;
57884;PMS5003;43703;51.060;-0.086;2022-08-25T15:19:51;3;3;
57884;PMS5003;43703;51.060;-0.086;2022-08-25T15:22:17;3;3;
57884;PMS5003;43703;51.060;-0.086;2022-08-25T15:24:43;1;1;
57884;PMS5003;43703;51.060;-0.086;2022-08-25T15:27:08;3;3;
57884;PMS5003;43703;51.060;-0.086;2022-08-25T15:29:34;3;3;
57884;PMS5003;43703;51.060;-0.086;2022-08-25T15:32:01;3;3;
57884;PMS5003;43703;51.060;-0.086;2022-08-25T15:34:26;4;4;
57884;PMS5003;43703;51.060;-0.086;2022-08-25T15:36:52;3;3;
57884;PMS5003;43703;51.060;-0.086;2022-08-25T15:39:17;3;3;
57884;PMS5003;43703;51.060;-0.086;2022-08-25T15:41:44;2;2;
57884;PMS5003;43703;51.060;-0.086;2022-08-25T15:44:09;1;1;
57884;PMS5003;43703;51.060;-0.086;2022-08-25T15:46:36;3;3;
57884;PMS5003;43703;51.060;-0.086;2022-08-25T15:49:01;4;4;
57884;PMS5003;43703;51.060;-0.086;2022-08-25T15:51:27;3;2;
57884;PMS5003;43703;51.060;-0.086;2022-08-25T15:53:52;3;3;
57884;PMS5003;43703;51.060;-0.086;2022-08-25T15:56:18;2;2;
57884;PMS5003;43703;51.060;-0.086;2022-08-25T15:58:44;5;5;
57884;PMS5003;43703;51.060;-0.086;2022-08-25T16:01:11;4;4;
57884;PMS5003;43703;51.060;-0.086;2022-08-25T16:03:36;5;5;
57884;PMS5003;43703;51.060;-0.086;2022-08-25T16:06:02;2;2;
57884;PMS5003;43703;51.060;-0.086;2022-08-25T16:08:28;6;6;
57884;PMS5003;43703;51.060;-0.086;2022-08-25T16:10:53;4;4;
57884;PMS5003;43703;51.060;-0.086;2022-08-25T16:13:19;6;6;
57884;PMS5003;43703;51.060;-0.086;2022-08-25T16:15:46;7;6;
57884;PMS5003;43703;51.060;-0.086;2022-08-25T16:18:11;6;6;
57884;PMS5003;43703;51.060;-0.086;2022-08-25T16:20:37;9;9;
57884;PMS5003;43703;51.060;-0.086;2022-08-25T16:23:03;8;6;
57884;PMS5003;43703;51.060;-0.086;2022-08-25T16:25:28;10;9;
57884;PMS5003;43703;51.060;-0.086;2022-08-25T16:27:54;11;11;
57884;PMS5003;43703;51.060;-0.086;2022-08-25T16:30:20;10;10;
57884;PMS5003;43703;51.060;-0.086;2022-08-25T16:32:45;13;13;
57884;PMS5003;43703;51.060;-0.086;2022-08-25T16:35:11;13;13;
57884;PMS5003;43703;51.060;-0.086;2022-08-25T16:37:37;12;12;
57884;PMS5003;43703;51.060;-0.086;2022-08-25T16:40:03;10;10;
57884;PMS5003;43703;51.060;-0.086;2022-08-25T16:42:28;12;11;
57884;PMS5003;43703;51.060;-0.086;2022-08-25T16:44:55;12;12;
57884;PMS5003;43703;51.060;-0.086;2022-08-25T16:47:20;13;13;
57884;PMS5003;43703;51.060;-0.086;2022-08-25T16:49:46;12;12;
57884;PMS5003;43703;51.060;-0.086;2022-08-25T16:52:17;13;13;
57884;PMS5003;43703;51.060;-0.086;2022-08-25T16:54:42;14;13;
57884;PMS5003;43703;51.060;-0.086;2022-08-25T16:57:08;15;15;
57884;PMS5003;43703;51.060;-0.086;2022-08-25T16:59:33;14;14;
57884;PMS5003;43703;51.060;-0.086;2022-08-25T17:01:54;17;17;
57884;PMS5003;43703;51.060;-0.086;2022-08-25T17:04:19;16;16;